Terminal Aerodrome Forecast
Issued by NWS Grand Forks, ND

Home | Current Version | Previous Version | Text Only | Print | Product List | Glossary Off
Versions: 1 2 3 4 5 6 7 8 9 10 11 12 13 14 15 16 17

533
FTUS43 KFGF 162324
TAFGFK
TAF
KGFK 162324Z 1700/1724 21015G22KT P6SM BKN100
     FM170300 22011KT P6SM BKN100
     FM170800 26007KT P6SM BKN200
     FM171300 29009KT P6SM BKN200
     FM171800 31013G18KT P6SM FEW250=

USA.gov is the U.S. government's official web portal to all federal, state and local government web resources and services.